sensor_id;sensor_type;location;lat;lon;timestamp;pressure;altitude;pressure_sealevel;temperature;humidity
36788;BME280;22738;45.560;9.434;2023-01-26T00:02:40;100141.63;;;4.68;100.00
36788;BME280;22738;45.560;9.434;2023-01-26T00:09:22;100140.59;;;4.72;100.00
36788;BME280;22738;45.560;9.434;2023-01-26T00:16:03;100127.00;;;4.70;100.00
36788;BME280;22738;45.560;9.434;2023-01-26T00:22:44;100123.19;;;4.80;100.00
36788;BME280;22738;45.560;9.434;2023-01-26T00:29:26;100116.72;;;4.93;100.00
36788;BME280;22738;45.560;9.434;2023-01-26T00:36:07;100107.91;;;5.00;100.00
36788;BME280;22738;45.560;9.434;2023-01-26T00:42:48;100106.78;;;5.07;100.00
36788;BME280;22738;45.560;9.434;2023-01-26T00:49:32;100092.72;;;5.17;100.00
36788;BME280;22738;45.560;9.434;2023-01-26T00:56:13;100094.50;;;5.15;100.00
36788;BME280;22738;45.560;9.434;2023-01-26T01:02:54;100091.03;;;5.16;100.00
36788;BME280;22738;45.560;9.434;2023-01-26T01:09:36;100080.75;;;5.16;100.00
36788;BME280;22738;45.560;9.434;2023-01-26T01:16:17;100070.59;;;5.13;100.00
36788;BME280;22738;45.560;9.434;2023-01-26T01:22:59;100064.22;;;5.00;100.00
36788;BME280;22738;45.560;9.434;2023-01-26T01:29:41;100058.00;;;4.84;100.00
36788;BME280;22738;45.560;9.434;2023-01-26T01:36:24;100058.63;;;4.90;100.00
36788;BME280;22738;45.560;9.434;2023-01-26T01:43:10;100060.22;;;4.93;100.00
36788;BME280;22738;45.560;9.434;2023-01-26T01:49:52;100047.63;;;4.87;100.00
36788;BME280;22738;45.560;9.434;2023-01-26T01:56:36;100045.88;;;4.87;100.00
36788;BME280;22738;45.560;9.434;2023-01-26T02:03:19;100042.03;;;4.76;100.00
36788;BME280;22738;45.560;9.434;2023-01-26T02:10:02;100033.47;;;4.77;100.00
36788;BME280;22738;45.560;9.434;2023-01-26T02:16:58;100016.69;;;4.90;100.00
36788;BME280;22738;45.560;9.434;2023-01-26T02:23:53;100009.94;;;4.87;100.00
36788;BME280;22738;45.560;9.434;2023-01-26T02:30:37;100004.38;;;4.98;100.00
36788;BME280;22738;45.560;9.434;2023-01-26T02:37:19;99993.00;;;5.05;100.00
36788;BME280;22738;45.560;9.434;2023-01-26T02:44:01;99997.34;;;5.03;100.00
36788;BME280;22738;45.560;9.434;2023-01-26T02:50:44;99985.84;;;5.13;100.00
36788;BME280;22738;45.560;9.434;2023-01-26T02:57:25;99969.22;;;5.22;100.00
36788;BME280;22738;45.560;9.434;2023-01-26T03:04:07;99963.63;;;5.32;100.00
36788;BME280;22738;45.560;9.434;2023-01-26T03:10:48;99958.56;;;5.31;100.00
36788;BME280;22738;45.560;9.434;2023-01-26T03:17:29;99953.50;;;5.29;100.00
36788;BME280;22738;45.560;9.434;2023-01-26T03:24:11;99952.59;;;5.30;100.00
36788;BME280;22738;45.560;9.434;2023-01-26T03:31:13;99956.59;;;5.37;100.00
36788;BME280;22738;45.560;9.434;2023-01-26T03:37:54;99959.47;;;5.50;100.00
36788;BME280;22738;45.560;9.434;2023-01-26T03:44:49;99944.50;;;5.39;100.00
36788;BME280;22738;45.560;9.434;2023-01-26T03:51:51;99948.19;;;5.34;100.00
36788;BME280;22738;45.560;9.434;2023-01-26T03:58:53;99945.84;;;5.28;100.00
36788;BME280;22738;45.560;9.434;2023-01-26T04:05:36;99935.22;;;5.15;100.00
36788;BME280;22738;45.560;9.434;2023-01-26T04:12:38;99936.19;;;5.13;100.00
36788;BME280;22738;45.560;9.434;2023-01-26T04:19:28;99922.06;;;5.23;100.00
36788;BME280;22738;45.560;9.434;2023-01-26T04:26:30;99912.75;;;5.20;100.00
36788;BME280;22738;45.560;9.434;2023-01-26T04:33:15;99914.31;;;5.24;100.00
36788;BME280;22738;45.560;9.434;2023-01-26T04:39:59;99912.88;;;5.17;100.00
36788;BME280;22738;45.560;9.434;2023-01-26T04:46:41;99907.16;;;5.11;100.00
36788;BME280;22738;45.560;9.434;2023-01-26T04:53:26;99906.94;;;4.95;100.00
36788;BME280;22738;45.560;9.434;2023-01-26T05:00:08;99903.34;;;4.99;100.00
36788;BME280;22738;45.560;9.434;2023-01-26T05:06:50;99907.53;;;5.01;100.00
36788;BME280;22738;45.560;9.434;2023-01-26T05:13:32;99905.25;;;4.94;100.00
36788;BME280;22738;45.560;9.434;2023-01-26T05:20:18;99897.44;;;4.97;100.00
36788;BME280;22738;45.560;9.434;2023-01-26T05:27:20;99900.88;;;4.96;100.00
36788;BME280;22738;45.560;9.434;2023-01-26T05:34:04;99900.13;;;4.94;100.00
36788;BME280;22738;45.560;9.434;2023-01-26T05:40:48;99899.88;;;5.00;100.00
36788;BME280;22738;45.560;9.434;2023-01-26T05:47:30;99901.44;;;5.04;100.00
36788;BME280;22738;45.560;9.434;2023-01-26T05:54:15;99893.28;;;4.93;100.00
36788;BME280;22738;45.560;9.434;2023-01-26T06:00:56;99894.72;;;5.00;100.00
36788;BME280;22738;45.560;9.434;2023-01-26T06:07:43;99893.19;;;4.96;100.00
36788;BME280;22738;45.560;9.434;2023-01-26T06:14:31;99891.16;;;5.04;100.00
36788;BME280;22738;45.560;9.434;2023-01-26T06:21:13;99875.94;;;4.99;100.00
36788;BME280;22738;45.560;9.434;2023-01-26T06:27:56;99875.09;;;4.99;100.00
36788;BME280;22738;45.560;9.434;2023-01-26T06:34:40;99870.47;;;5.07;100.00
36788;BME280;22738;45.560;9.434;2023-01-26T06:41:22;99865.59;;;5.01;100.00
36788;BME280;22738;45.560;9.434;2023-01-26T06:48:04;99869.69;;;5.05;100.00
36788;BME280;22738;45.560;9.434;2023-01-26T06:54:49;99870.25;;;5.13;100.00
36788;BME280;22738;45.560;9.434;2023-01-26T07:01:49;99868.66;;;5.09;100.00
36788;BME280;22738;45.560;9.434;2023-01-26T07:08:31;99873.31;;;5.21;100.00
36788;BME280;22738;45.560;9.434;2023-01-26T07:15:12;99863.16;;;5.18;100.00
36788;BME280;22738;45.560;9.434;2023-01-26T07:21:53;99863.41;;;5.32;100.00
36788;BME280;22738;45.560;9.434;2023-01-26T07:28:34;99871.00;;;5.35;100.00
36788;BME280;22738;45.560;9.434;2023-01-26T07:35:15;99872.81;;;5.33;100.00
36788;BME280;22738;45.560;9.434;2023-01-26T07:41:56;99874.44;;;5.36;100.00
36788;BME280;22738;45.560;9.434;2023-01-26T07:48:54;99869.59;;;5.48;100.00
36788;BME280;22738;45.560;9.434;2023-01-26T07:55:36;99869.84;;;5.42;100.00
36788;BME280;22738;45.560;9.434;2023-01-26T08:02:17;99865.16;;;5.52;100.00
36788;BME280;22738;45.560;9.434;2023-01-26T08:08:58;99863.00;;;5.61;100.00
36788;BME280;22738;45.560;9.434;2023-01-26T08:15:39;99861.25;;;5.82;100.00
36788;BME280;22738;45.560;9.434;2023-01-26T08:22:20;99862.84;;;6.05;100.00
36788;BME280;22738;45.560;9.434;2023-01-26T08:29:01;99867.66;;;6.12;100.00
36788;BME280;22738;45.560;9.434;2023-01-26T08:35:43;99872.59;;;6.17;100.00
36788;BME280;22738;45.560;9.434;2023-01-26T08:42:24;99872.03;;;6.29;100.00
36788;BME280;22738;45.560;9.434;2023-01-26T08:49:05;99867.78;;;6.28;100.00
36788;BME280;22738;45.560;9.434;2023-01-26T08:55:46;99872.88;;;6.11;100.00
36788;BME280;22738;45.560;9.434;2023-01-26T09:02:27;99873.06;;;6.25;100.00
36788;BME280;22738;45.560;9.434;2023-01-26T09:09:08;99875.22;;;6.34;100.00
36788;BME280;22738;45.560;9.434;2023-01-26T09:15:52;99870.47;;;6.62;100.00
36788;BME280;22738;45.560;9.434;2023-01-26T09:22:34;99869.91;;;6.56;100.00
36788;BME280;22738;45.560;9.434;2023-01-26T09:29:15;99869.84;;;6.38;100.00
36788;BME280;22738;45.560;9.434;2023-01-26T09:36:04;99873.03;;;6.62;100.00
36788;BME280;22738;45.560;9.434;2023-01-26T09:56:30;99875.16;;;7.07;100.00
36788;BME280;22738;45.560;9.434;2023-01-26T10:10:20;99871.41;;;6.78;100.00
36788;BME280;22738;45.560;9.434;2023-01-26T10:17:04;99863.06;;;6.73;100.00
36788;BME280;22738;45.560;9.434;2023-01-26T10:23:47;99850.50;;;6.84;100.00
36788;BME280;22738;45.560;9.434;2023-01-26T10:30:28;99843.53;;;6.86;100.00
36788;BME280;22738;45.560;9.434;2023-01-26T10:37:30;99842.88;;;7.17;100.00
36788;BME280;22738;45.560;9.434;2023-01-26T10:51:14;99814.84;;;7.61;100.00
36788;BME280;22738;45.560;9.434;2023-01-26T10:57:55;99810.47;;;7.94;100.00
36788;BME280;22738;45.560;9.434;2023-01-26T11:04:38;99795.81;;;7.95;100.00
36788;BME280;22738;45.560;9.434;2023-01-26T11:11:28;99787.75;;;8.32;100.00
36788;BME280;22738;45.560;9.434;2023-01-26T11:25:31;99758.66;;;8.59;100.00
36788;BME280;22738;45.560;9.434;2023-01-26T11:45:53;99725.44;;;9.11;100.00
36788;BME280;22738;45.560;9.434;2023-01-26T11:52:57;99711.66;;;9.11;100.00
36788;BME280;22738;45.560;9.434;2023-01-26T12:00:02;99713.09;;;8.73;100.00
36788;BME280;22738;45.560;9.434;2023-01-26T12:06:59;99689.69;;;8.46;100.00
36788;BME280;22738;45.560;9.434;2023-01-26T12:13:45;99669.16;;;8.13;100.00
36788;BME280;22738;45.560;9.434;2023-01-26T12:20:45;99659.84;;;7.81;100.00
36788;BME280;22738;45.560;9.434;2023-01-26T12:34:39;99655.28;;;8.45;100.00
36788;BME280;22738;45.560;9.434;2023-01-26T13:01:51;99602.19;;;8.55;100.00
36788;BME280;22738;45.560;9.434;2023-01-26T13:15:15;99580.31;;;8.47;100.00
36788;BME280;22738;45.560;9.434;2023-01-26T13:21:57;99576.78;;;8.34;100.00
36788;BME280;22738;45.560;9.434;2023-01-26T13:28:38;99564.34;;;8.26;100.00
36788;BME280;22738;45.560;9.434;2023-01-26T13:35:21;99559.31;;;8.23;100.00
36788;BME280;22738;45.560;9.434;2023-01-26T13:42:15;99554.31;;;8.20;100.00
36788;BME280;22738;45.560;9.434;2023-01-26T13:48:58;99559.91;;;8.28;100.00
36788;BME280;22738;45.560;9.434;2023-01-26T13:55:41;99550.16;;;8.33;100.00
36788;BME280;22738;45.560;9.434;2023-01-26T14:02:27;99550.66;;;8.24;100.00
36788;BME280;22738;45.560;9.434;2023-01-26T14:09:12;99546.81;;;8.31;100.00
36788;BME280;22738;45.560;9.434;2023-01-26T14:16:00;99540.34;;;8.24;100.00
36788;BME280;22738;45.560;9.434;2023-01-26T14:22:42;99538.97;;;8.33;100.00
36788;BME280;22738;45.560;9.434;2023-01-26T14:29:27;99525.69;;;8.39;100.00
36788;BME280;22738;45.560;9.434;2023-01-26T14:36:15;99538.91;;;8.48;100.00
36788;BME280;22738;45.560;9.434;2023-01-26T14:42:57;99532.44;;;8.55;100.00
36788;BME280;22738;45.560;9.434;2023-01-26T14:49:55;99530.94;;;8.66;100.00
36788;BME280;22738;45.560;9.434;2023-01-26T14:56:39;99529.94;;;8.82;100.00
36788;BME280;22738;45.560;9.434;2023-01-26T15:03:27;99534.09;;;8.71;100.00
36788;BME280;22738;45.560;9.434;2023-01-26T15:10:39;99526.06;;;8.61;100.00
36788;BME280;22738;45.560;9.434;2023-01-26T15:17:37;99525.63;;;8.40;100.00
36788;BME280;22738;45.560;9.434;2023-01-26T15:24:18;99531.66;;;8.25;100.00
36788;BME280;22738;45.560;9.434;2023-01-26T15:30:59;99536.41;;;8.03;100.00
36788;BME280;22738;45.560;9.434;2023-01-26T15:37:41;99535.94;;;7.97;100.00
36788;BME280;22738;45.560;9.434;2023-01-26T15:44:22;99531.47;;;7.84;100.00
36788;BME280;22738;45.560;9.434;2023-01-26T15:51:07;99519.00;;;7.77;100.00
36788;BME280;22738;45.560;9.434;2023-01-26T15:57:50;99518.72;;;7.67;100.00
36788;BME280;22738;45.560;9.434;2023-01-26T16:04:31;99512.50;;;7.56;100.00
36788;BME280;22738;45.560;9.434;2023-01-26T16:11:13;99510.63;;;7.44;100.00
36788;BME280;22738;45.560;9.434;2023-01-26T16:17:54;99516.81;;;7.26;100.00
36788;BME280;22738;45.560;9.434;2023-01-26T16:24:36;99517.66;;;7.10;100.00
36788;BME280;22738;45.560;9.434;2023-01-26T16:31:23;99503.94;;;6.94;100.00
36788;BME280;22738;45.560;9.434;2023-01-26T16:38:05;99511.31;;;6.69;100.00
36788;BME280;22738;45.560;9.434;2023-01-26T16:44:52;99497.00;;;6.48;100.00
36788;BME280;22738;45.560;9.434;2023-01-26T16:51:37;99507.06;;;6.20;100.00
36788;BME280;22738;45.560;9.434;2023-01-26T16:58:22;99507.34;;;5.79;100.00
36788;BME280;22738;45.560;9.434;2023-01-26T17:05:08;99514.19;;;5.81;100.00
36788;BME280;22738;45.560;9.434;2023-01-26T17:11:49;99523.91;;;5.93;100.00
36788;BME280;22738;45.560;9.434;2023-01-26T17:18:30;99523.91;;;5.57;100.00
36788;BME280;22738;45.560;9.434;2023-01-26T17:25:14;99525.94;;;5.50;100.00
36788;BME280;22738;45.560;9.434;2023-01-26T17:31:55;99519.75;;;5.54;100.00
36788;BME280;22738;45.560;9.434;2023-01-26T17:38:37;99527.25;;;5.23;100.00
36788;BME280;22738;45.560;9.434;2023-01-26T17:45:19;99525.75;;;4.82;100.00
36788;BME280;22738;45.560;9.434;2023-01-26T17:52:00;99530.47;;;4.54;100.00
36788;BME280;22738;45.560;9.434;2023-01-26T17:58:41;99531.72;;;4.45;100.00
36788;BME280;22738;45.560;9.434;2023-01-26T18:05:26;99543.06;;;4.40;100.00
36788;BME280;22738;45.560;9.434;2023-01-26T18:12:07;99546.63;;;4.17;100.00
36788;BME280;22738;45.560;9.434;2023-01-26T18:18:56;99548.31;;;4.18;100.00
36788;BME280;22738;45.560;9.434;2023-01-26T18:25:37;99548.53;;;3.92;100.00
36788;BME280;22738;45.560;9.434;2023-01-26T18:32:19;99536.69;;;3.89;100.00
36788;BME280;22738;45.560;9.434;2023-01-26T18:39:04;99543.53;;;3.69;100.00
36788;BME280;22738;45.560;9.434;2023-01-26T18:45:45;99537.31;;;3.74;100.00
36788;BME280;22738;45.560;9.434;2023-01-26T18:52:26;99559.09;;;3.64;100.00
36788;BME280;22738;45.560;9.434;2023-01-26T18:59:07;99570.06;;;3.46;100.00
36788;BME280;22738;45.560;9.434;2023-01-26T19:05:52;99559.59;;;3.52;100.00
36788;BME280;22738;45.560;9.434;2023-01-26T19:12:33;99561.91;;;3.58;100.00
36788;BME280;22738;45.560;9.434;2023-01-26T19:19:14;99553.25;;;3.60;100.00
36788;BME280;22738;45.560;9.434;2023-01-26T19:25:56;99563.53;;;3.59;100.00
36788;BME280;22738;45.560;9.434;2023-01-26T19:32:37;99555.28;;;3.52;100.00
36788;BME280;22738;45.560;9.434;2023-01-26T19:39:40;99559.75;;;3.69;100.00
36788;BME280;22738;45.560;9.434;2023-01-26T19:46:21;99565.25;;;3.80;100.00
36788;BME280;22738;45.560;9.434;2023-01-26T19:53:02;99561.63;;;4.06;100.00
36788;BME280;22738;45.560;9.434;2023-01-26T19:59:43;99558.91;;;4.09;100.00
36788;BME280;22738;45.560;9.434;2023-01-26T20:06:27;99558.56;;;4.18;100.00
36788;BME280;22738;45.560;9.434;2023-01-26T20:13:08;99571.69;;;4.30;100.00
36788;BME280;22738;45.560;9.434;2023-01-26T20:19:49;99567.59;;;4.26;100.00
36788;BME280;22738;45.560;9.434;2023-01-26T20:26:30;99567.44;;;4.29;100.00
36788;BME280;22738;45.560;9.434;2023-01-26T20:33:11;99573.47;;;4.49;100.00
36788;BME280;22738;45.560;9.434;2023-01-26T20:39:52;99573.91;;;4.58;100.00
36788;BME280;22738;45.560;9.434;2023-01-26T20:46:39;99579.06;;;4.77;100.00
36788;BME280;22738;45.560;9.434;2023-01-26T20:53:20;99581.63;;;4.77;100.00
36788;BME280;22738;45.560;9.434;2023-01-26T21:00:02;99579.47;;;4.86;100.00
36788;BME280;22738;45.560;9.434;2023-01-26T21:06:44;99567.28;;;5.10;100.00
36788;BME280;22738;45.560;9.434;2023-01-26T21:13:25;99566.88;;;5.36;100.00
36788;BME280;22738;45.560;9.434;2023-01-26T21:20:08;99576.78;;;5.08;100.00
36788;BME280;22738;45.560;9.434;2023-01-26T21:26:49;99569.50;;;4.99;100.00
36788;BME280;22738;45.560;9.434;2023-01-26T21:33:33;99567.28;;;5.10;100.00
36788;BME280;22738;45.560;9.434;2023-01-26T21:40:16;99563.78;;;5.11;100.00
36788;BME280;22738;45.560;9.434;2023-01-26T21:46:59;99560.94;;;5.17;100.00
36788;BME280;22738;45.560;9.434;2023-01-26T21:53:42;99562.00;;;5.13;100.00
36788;BME280;22738;45.560;9.434;2023-01-26T22:00:23;99556.56;;;5.19;100.00
36788;BME280;22738;45.560;9.434;2023-01-26T22:07:04;99563.38;;;5.20;100.00
36788;BME280;22738;45.560;9.434;2023-01-26T22:13:46;99558.25;;;5.20;100.00
36788;BME280;22738;45.560;9.434;2023-01-26T22:20:27;99561.91;;;5.15;100.00
36788;BME280;22738;45.560;9.434;2023-01-26T22:27:08;99566.22;;;5.14;100.00
36788;BME280;22738;45.560;9.434;2023-01-26T22:33:49;99553.25;;;5.17;100.00
36788;BME280;22738;45.560;9.434;2023-01-26T22:40:31;99550.81;;;5.14;100.00
36788;BME280;22738;45.560;9.434;2023-01-26T22:47:12;99549.75;;;5.18;100.00
36788;BME280;22738;45.560;9.434;2023-01-26T22:53:54;99559.22;;;5.18;100.00
36788;BME280;22738;45.560;9.434;2023-01-26T23:00:36;99542.13;;;5.17;100.00
36788;BME280;22738;45.560;9.434;2023-01-26T23:07:18;99549.75;;;5.18;100.00
36788;BME280;22738;45.560;9.434;2023-01-26T23:13:59;99550.13;;;5.29;100.00
36788;BME280;22738;45.560;9.434;2023-01-26T23:20:40;99550.25;;;5.26;100.00
36788;BME280;22738;45.560;9.434;2023-01-26T23:27:22;99555.59;;;5.22;100.00
36788;BME280;22738;45.560;9.434;2023-01-26T23:34:03;99545.09;;;5.26;100.00
36788;BME280;22738;45.560;9.434;2023-01-26T23:40:44;99537.94;;;5.33;100.00
36788;BME280;22738;45.560;9.434;2023-01-26T23:47:27;99538.16;;;5.28;100.00
36788;BME280;22738;45.560;9.434;2023-01-26T23:54:08;99531.97;;;5.32;100.00
